createdAt,value
2023-05-14T00:00:33.353Z,9.20
2023-05-14T00:03:00.320Z,9.20
2023-05-14T00:05:28.211Z,8.03
2023-05-14T00:07:55.799Z,8.70
2023-05-14T00:10:22.903Z,9.20
2023-05-14T00:12:52.216Z,8.07
2023-05-14T00:15:20.063Z,8.47
2023-05-14T00:17:47.201Z,9.30
2023-05-14T00:20:14.562Z,8.80
2023-05-14T00:22:41.921Z,8.80
2023-05-14T00:25:09.824Z,8.37
2023-05-14T00:27:38.270Z,9.07
2023-05-14T00:30:07.284Z,9.70
2023-05-14T00:32:34.660Z,7.67
2023-05-14T00:35:03.597Z,9.33
2023-05-14T00:37:30.874Z,7.50
2023-05-14T00:39:58.467Z,8.80
2023-05-14T00:42:26.106Z,9.30
2023-05-14T00:44:53.427Z,9.20
2023-05-14T00:47:22.132Z,9.50
2023-05-14T00:49:49.262Z,8.63
2023-05-14T00:52:17.329Z,8.83
2023-05-14T00:54:46.929Z,7.93
2023-05-14T00:57:13.966Z,8.27
2023-05-14T00:59:42.629Z,9.17
2023-05-14T01:02:09.593Z,8.53
2023-05-14T01:04:38.125Z,8.83
2023-05-14T01:07:18.319Z,7.53
2023-05-14T01:09:55.428Z,9.07
2023-05-14T01:12:35.390Z,8.50
2023-05-14T01:15:21.319Z,7.90
2023-05-14T01:17:59.550Z,8.33
2023-05-14T01:20:29.328Z,8.70
2023-05-14T01:22:57.229Z,8.57
2023-05-14T01:25:24.250Z,8.00
2023-05-14T01:27:56.949Z,7.37
2023-05-14T01:30:45.441Z,7.37
2023-05-14T01:33:16.507Z,7.73
2023-05-14T01:35:44.273Z,7.67
2023-05-14T01:38:13.890Z,7.03
2023-05-14T01:40:42.337Z,6.60
2023-05-14T01:43:09.757Z,7.10
2023-05-14T01:45:37.658Z,6.97
2023-05-14T01:48:05.718Z,6.20
2023-05-14T01:50:33.925Z,7.10
2023-05-14T01:58:24.646Z,6.90
2023-05-14T02:00:51.510Z,7.27
2023-05-14T02:03:18.576Z,6.70
2023-05-14T02:05:45.669Z,7.20
2023-05-14T02:08:12.498Z,6.87
2023-05-14T02:10:39.261Z,7.00
2023-05-14T02:34:42.024Z,6.80
2023-05-14T02:37:09.541Z,6.73
2023-05-14T02:39:36.310Z,7.30
2023-05-14T02:42:03.081Z,8.03
2023-05-14T02:44:31.874Z,7.07
2023-05-14T02:46:58.774Z,7.93
2023-05-14T02:49:25.584Z,8.17
2023-05-14T02:51:54.669Z,7.43
2023-05-14T02:54:21.717Z,8.63
2023-05-14T02:56:48.492Z,7.70
2023-05-14T02:59:15.704Z,8.50
2023-05-14T03:01:43.491Z,7.10
2023-05-14T03:04:11.133Z,7.83
2023-05-14T03:06:38.226Z,8.13
2023-05-14T03:09:05.098Z,7.40
2023-05-14T03:11:32.317Z,7.80
2023-05-14T03:13:59.091Z,8.77
2023-05-14T03:16:26.181Z,8.53
2023-05-14T03:18:53.446Z,8.70
2023-05-14T03:21:20.763Z,7.97
2023-05-14T03:23:47.763Z,8.63
2023-05-14T03:26:14.972Z,8.43
2023-05-14T03:28:42.237Z,8.87
2023-05-14T03:31:09.107Z,10.03
2023-05-14T03:33:36.267Z,9.93
2023-05-14T03:36:03.540Z,10.43
2023-05-14T03:38:30.576Z,9.63
2023-05-14T04:19:14.434Z,10.40
2023-05-14T04:21:41.147Z,10.30
2023-05-14T04:24:09.081Z,10.10
2023-05-14T04:26:35.891Z,11.20
2023-05-14T04:29:04.158Z,10.17
2023-05-14T04:31:31.901Z,10.80
2023-05-14T04:33:58.887Z,9.80
2023-05-14T04:36:25.564Z,9.40
2023-05-14T04:38:52.002Z,10.13
2023-05-14T04:41:18.800Z,9.30
2023-05-14T04:43:50.431Z,8.93
2023-05-14T04:46:17.483Z,10.40
2023-05-14T04:48:43.928Z,10.13
2023-05-14T04:51:10.500Z,10.27
2023-05-14T04:53:37.040Z,9.90
2023-05-14T04:56:03.581Z,9.30
2023-05-14T04:58:34.621Z,8.80
2023-05-14T05:01:03.073Z,8.50
2023-05-14T05:03:29.982Z,9.60
2023-05-14T05:05:56.572Z,9.60
2023-05-14T05:08:23.241Z,9.23
2023-05-14T05:10:50.055Z,9.33
2023-05-14T05:13:17.133Z,8.70
2023-05-14T05:15:44.083Z,9.40
2023-05-14T05:18:10.760Z,9.43
2023-05-14T05:20:37.260Z,9.20
2023-05-14T05:23:03.980Z,9.07
2023-05-14T05:25:31.415Z,7.87
2023-05-14T05:27:57.816Z,9.27
2023-05-14T05:30:24.657Z,8.10
2023-05-14T05:32:51.415Z,7.70
2023-05-14T05:35:18.179Z,8.40
2023-05-14T05:37:46.194Z,8.20
2023-05-14T05:40:14.313Z,8.53
2023-05-14T05:42:41.711Z,8.43
2023-05-14T05:45:10.755Z,8.60
2023-05-14T05:47:41.084Z,8.10
2023-05-14T05:50:08.867Z,7.30
2023-05-14T05:52:35.828Z,7.37
2023-05-14T05:55:02.537Z,7.77
2023-05-14T05:57:29.283Z,7.33
2023-05-14T05:59:55.828Z,7.20
2023-05-14T06:02:22.927Z,7.70
2023-05-14T06:04:51.467Z,6.80
2023-05-14T06:07:17.918Z,7.03
2023-05-14T06:09:44.312Z,6.90
2023-05-14T06:12:12.877Z,7.33
2023-05-14T06:14:39.249Z,6.40
2023-05-14T06:17:07.569Z,6.03
2023-05-14T06:19:34.107Z,5.60
2023-05-14T06:22:01.167Z,5.60
2023-05-14T06:24:27.605Z,5.30
2023-05-14T06:26:54.365Z,4.43
2023-05-14T06:29:21.001Z,4.90
2023-05-14T06:31:49.669Z,4.70
2023-05-14T06:34:16.430Z,4.77
2023-05-14T06:36:43.113Z,5.23
2023-05-14T06:39:10.191Z,4.90
2023-05-14T06:41:36.696Z,4.97
2023-05-14T06:44:05.849Z,4.50
2023-05-14T06:46:32.328Z,4.83
2023-05-14T06:48:59.627Z,4.90
2023-05-14T06:51:26.310Z,4.73
2023-05-14T06:53:54.823Z,4.30
2023-05-14T06:56:22.457Z,4.00
2023-05-14T06:58:49.228Z,4.20
2023-05-14T07:01:17.123Z,4.30
2023-05-14T07:03:43.676Z,3.93
2023-05-14T07:06:12.992Z,3.27
2023-05-14T07:08:40.244Z,3.30
2023-05-14T07:17:19.412Z,2.93
2023-05-14T07:19:47.130Z,2.90
2023-05-14T07:22:13.515Z,3.20
2023-05-14T07:24:39.952Z,3.27
2023-05-14T07:27:06.472Z,3.10
2023-05-14T07:29:34.960Z,3.30
2023-05-14T07:32:01.848Z,2.77
2023-05-14T07:34:28.256Z,3.00
2023-05-14T07:36:54.738Z,2.90
2023-05-14T07:39:21.704Z,2.73
2023-05-14T07:41:48.389Z,2.43
2023-05-14T07:44:14.796Z,2.70
2023-05-14T07:46:41.268Z,2.60
2023-05-14T07:49:07.675Z,2.70
2023-05-14T07:51:34.265Z,2.50
2023-05-14T07:54:00.964Z,2.77
2023-05-14T07:56:27.430Z,2.57
2023-05-14T07:58:53.862Z,2.50
2023-05-14T08:01:20.763Z,2.50
2023-05-14T08:03:47.659Z,2.37
2023-05-14T08:06:14.140Z,2.47
2023-05-14T08:08:40.844Z,2.73
2023-05-14T08:11:07.355Z,2.47
2023-05-14T08:13:33.825Z,2.70
2023-05-14T08:16:00.353Z,2.73
2023-05-14T08:18:26.799Z,2.90
2023-05-14T08:20:53.268Z,2.70
2023-05-14T08:23:19.674Z,2.70
2023-05-14T08:25:46.146Z,2.80
2023-05-14T08:28:12.536Z,2.77
2023-05-14T08:30:38.985Z,2.70
2023-05-14T08:33:05.534Z,2.90
2023-05-14T08:35:31.990Z,2.70
2023-05-14T08:37:58.400Z,2.60
2023-05-14T08:40:25.082Z,2.50
2023-05-14T08:42:52.932Z,2.60
2023-05-14T08:45:26.640Z,2.50
2023-05-14T08:47:53.676Z,2.37
2023-05-14T08:50:22.928Z,2.20
2023-05-14T08:52:50.261Z,2.50
2023-05-14T08:55:16.673Z,2.70
2023-05-14T08:57:43.111Z,2.70
2023-05-14T09:00:13.115Z,2.67
2023-05-14T09:02:40.894Z,2.60
2023-05-14T09:05:09.283Z,2.80
2023-05-14T09:07:36.263Z,3.00
2023-05-14T09:10:03.870Z,2.70
2023-05-14T09:12:31.078Z,2.87
2023-05-14T09:14:57.561Z,2.60
2023-05-14T09:17:25.831Z,2.50
2023-05-14T09:19:53.254Z,2.17
2023-05-14T09:22:20.504Z,2.53
2023-05-14T09:24:47.376Z,2.40
2023-05-14T09:27:22.454Z,2.50
2023-05-14T09:29:48.879Z,2.47
2023-05-14T09:32:15.286Z,2.72
2023-05-14T09:34:42.247Z,2.60
2023-05-14T09:37:09.756Z,2.60
2023-05-14T09:39:37.614Z,2.60
2023-05-14T09:42:04.540Z,2.70
2023-05-14T09:44:31.822Z,2.97
2023-05-14T09:46:58.447Z,2.60
2023-05-14T09:49:24.909Z,2.70
2023-05-14T09:51:51.813Z,2.50
2023-05-14T09:54:18.331Z,2.42
2023-05-14T09:56:44.955Z,2.25
2023-05-14T09:59:11.557Z,2.15
2023-05-14T10:01:38.646Z,2.17
2023-05-14T10:04:07.836Z,2.33
2023-05-14T10:06:37.849Z,2.13
2023-05-14T10:09:08.923Z,1.90
2023-05-14T10:11:38.311Z,2.10
2023-05-14T10:14:08.719Z,2.10
2023-05-14T10:16:40.812Z,2.08
2023-05-14T10:19:10.655Z,2.10
2023-05-14T10:21:38.817Z,2.05
2023-05-14T10:24:06.374Z,1.95
2023-05-14T10:26:37.693Z,2.58
2023-05-14T10:29:04.064Z,3.00
2023-05-14T10:31:50.411Z,2.88
2023-05-14T10:34:34.580Z,2.97
2023-05-14T10:37:02.535Z,2.90
2023-05-14T10:39:47.973Z,2.70
2023-05-14T10:42:27.372Z,2.60
2023-05-14T10:45:01.683Z,3.05
2023-05-14T10:47:29.188Z,2.80
2023-05-14T10:49:57.894Z,2.75
2023-05-14T10:52:25.557Z,3.00
2023-05-14T10:54:51.918Z,2.58
2023-05-14T10:57:19.718Z,3.00
2023-05-14T10:59:47.701Z,3.40
2023-05-14T11:02:37.713Z,3.40
2023-05-14T11:05:08.141Z,2.90
2023-05-14T11:07:39.972Z,3.03
2023-05-14T11:10:08.656Z,3.22
2023-05-14T11:12:37.669Z,3.08
2023-05-14T11:15:07.748Z,3.10
2023-05-14T11:17:35.662Z,2.90
2023-05-14T11:20:02.260Z,2.83
2023-05-14T11:22:28.923Z,2.90
2023-05-14T11:24:55.333Z,2.70
2023-05-14T11:27:23.468Z,2.90
2023-05-14T11:29:50.938Z,3.28
2023-05-14T11:32:18.784Z,2.83
2023-05-14T11:34:46.803Z,2.90
2023-05-14T11:37:15.712Z,2.65
2023-05-14T11:39:53.471Z,2.50
2023-05-14T11:42:21.346Z,3.05
2023-05-14T11:44:49.655Z,3.38
2023-05-14T11:47:18.329Z,3.38
2023-05-14T11:49:45.361Z,3.17
2023-05-14T11:52:16.522Z,2.95
2023-05-14T11:54:44.277Z,3.28
2023-05-14T11:57:16.678Z,3.20
2023-05-14T11:59:43.421Z,2.72
2023-05-14T12:02:15.354Z,3.47
2023-05-14T12:04:42.839Z,2.70
2023-05-14T12:07:11.336Z,2.95
2023-05-14T12:09:49.660Z,2.60
2023-05-14T12:12:21.789Z,2.72
2023-05-14T12:14:49.877Z,2.90
2023-05-14T12:17:19.091Z,2.67
2023-05-14T12:19:48.248Z,2.70
2023-05-14T12:22:18.657Z,2.90
2023-05-14T12:24:53.788Z,2.70
2023-05-14T12:27:26.264Z,2.88
2023-05-14T12:30:19.907Z,2.75
2023-05-14T12:32:52.637Z,2.83
2023-05-14T12:35:21.484Z,3.08
2023-05-14T12:37:48.022Z,2.83
2023-05-14T12:40:14.594Z,2.85
2023-05-14T12:42:41.302Z,2.75
2023-05-14T12:45:08.634Z,2.63
2023-05-14T12:47:36.465Z,3.30
2023-05-14T12:50:03.252Z,3.10
2023-05-14T12:54:59.072Z,3.40
2023-05-14T12:57:27.717Z,2.90
2023-05-14T12:59:55.580Z,3.20
2023-05-14T13:02:22.454Z,3.17
2023-05-14T13:04:48.936Z,2.97
2023-05-14T13:07:15.515Z,3.30
2023-05-14T13:09:41.938Z,3.10
2023-05-14T13:12:09.037Z,3.40
2023-05-14T13:14:36.410Z,3.05
2023-05-14T13:17:04.655Z,3.67
2023-05-14T13:19:31.168Z,3.33
2023-05-14T13:21:57.641Z,3.25
2023-05-14T13:24:25.006Z,2.92
2023-05-14T13:26:51.418Z,3.97
2023-05-14T13:29:17.857Z,4.47
2023-05-14T13:31:44.341Z,4.60
2023-05-14T13:34:10.809Z,4.95
2023-05-14T13:36:39.610Z,5.60
2023-05-14T13:39:07.152Z,6.18
2023-05-14T13:41:35.649Z,6.50
2023-05-14T13:44:02.104Z,6.70
2023-05-14T13:46:28.867Z,7.27
2023-05-14T13:48:55.307Z,7.47
2023-05-14T13:51:22.783Z,5.73
2023-05-14T13:53:49.996Z,3.67
2023-05-14T13:56:16.436Z,2.93
2023-05-14T13:58:42.923Z,2.20
2023-05-14T14:01:09.403Z,1.57
2023-05-14T14:03:35.790Z,1.70
2023-05-14T14:06:02.204Z,1.70
2023-05-14T14:08:28.623Z,1.60
2023-05-14T14:10:55.488Z,1.60
2023-05-14T14:13:22.779Z,1.40
2023-05-14T14:15:49.984Z,1.77
2023-05-14T14:18:16.498Z,1.63
2023-05-14T14:20:42.949Z,1.50
2023-05-14T14:23:09.337Z,2.00
2023-05-14T14:25:35.827Z,1.87
2023-05-14T14:28:02.221Z,2.20
2023-05-14T14:30:28.864Z,2.10
2023-05-14T14:32:55.346Z,1.80
2023-05-14T14:35:23.333Z,2.00
2023-05-14T14:37:50.792Z,1.80
2023-05-14T14:40:17.420Z,2.00
2023-05-14T14:42:44.191Z,1.97
2023-05-14T14:45:11.201Z,2.10
2023-05-14T14:47:37.766Z,2.20
2023-05-14T14:50:04.843Z,2.13
2023-05-14T14:52:31.313Z,2.27
2023-05-14T14:54:57.800Z,1.90
2023-05-14T14:57:24.190Z,1.90
2023-05-14T14:59:50.591Z,2.00
2023-05-14T15:02:17.059Z,1.93
2023-05-14T15:04:43.672Z,1.90
2023-05-14T15:07:10.066Z,2.10
2023-05-14T15:09:36.540Z,2.10
2023-05-14T15:12:03.001Z,1.70
2023-05-14T15:14:29.409Z,1.80
2023-05-14T15:16:55.894Z,2.00
2023-05-14T15:19:22.303Z,2.20
2023-05-14T15:21:48.890Z,1.80
2023-05-14T15:24:15.320Z,2.00
2023-05-14T15:26:41.806Z,2.00
2023-05-14T15:29:08.244Z,1.93
2023-05-14T15:31:34.952Z,1.90
2023-05-14T15:34:01.525Z,2.17
2023-05-14T15:36:28.627Z,1.90
2023-05-14T15:38:55.076Z,2.00
2023-05-14T15:41:22.707Z,1.97
2023-05-14T15:43:49.137Z,2.17
2023-05-14T15:46:15.542Z,2.43
2023-05-14T15:48:42.135Z,2.27
2023-05-14T15:51:08.664Z,2.20
2023-05-14T15:53:35.175Z,1.93
2023-05-14T15:56:02.317Z,2.30
2023-05-14T15:58:28.810Z,2.30
2023-05-14T16:00:55.186Z,2.07
2023-05-14T16:03:21.731Z,1.90
2023-05-14T16:05:48.581Z,2.07
2023-05-14T16:08:15.041Z,2.27
2023-05-14T16:10:41.505Z,2.00
2023-05-14T16:13:07.921Z,1.87
2023-05-14T16:15:34.370Z,1.97
2023-05-14T16:18:00.977Z,2.03
2023-05-14T16:20:27.402Z,1.83
2023-05-14T16:22:53.784Z,2.00
2023-05-14T16:25:20.298Z,2.40
2023-05-14T16:27:46.761Z,2.20
2023-05-14T16:30:13.376Z,2.30
2023-05-14T16:32:41.839Z,2.40
2023-05-14T16:35:08.863Z,2.40
2023-05-14T16:37:35.791Z,2.47
2023-05-14T16:40:02.345Z,2.33
2023-05-14T16:42:28.913Z,2.30
2023-05-14T16:44:55.326Z,2.50
2023-05-14T16:47:21.734Z,2.07
2023-05-14T16:49:48.524Z,2.27
2023-05-14T16:52:15.082Z,2.23
2023-05-14T16:54:41.544Z,2.37
2023-05-14T16:57:07.965Z,2.50
2023-05-14T16:59:34.398Z,2.57
2023-05-14T17:02:00.878Z,2.30
2023-05-14T17:04:27.542Z,2.20
2023-05-14T17:06:55.062Z,2.50
2023-05-14T17:09:21.537Z,2.87
2023-05-14T17:11:47.933Z,2.60
2023-05-14T17:14:14.388Z,2.33
2023-05-14T17:16:43.611Z,2.50
2023-05-14T17:19:10.094Z,2.30
2023-05-14T17:21:36.618Z,2.30
2023-05-14T17:24:03.069Z,2.47
2023-05-14T17:26:29.536Z,2.30
2023-05-14T17:28:56.008Z,2.47
2023-05-14T17:31:23.243Z,2.90
2023-05-14T17:33:49.734Z,2.50
2023-05-14T17:36:16.253Z,2.40
2023-05-14T17:38:42.664Z,2.70
2023-05-14T17:41:09.779Z,2.50
2023-05-14T17:43:36.225Z,2.97
2023-05-14T17:46:03.524Z,2.50
2023-05-14T17:48:30.034Z,2.43
2023-05-14T17:50:56.544Z,2.40
2023-05-14T17:53:24.007Z,2.43
2023-05-14T17:55:50.764Z,2.25
2023-05-14T17:58:17.313Z,2.53
2023-05-14T18:00:44.064Z,2.50
2023-05-14T18:03:10.730Z,2.30
2023-05-14T18:05:37.276Z,2.63
2023-05-14T18:08:03.782Z,2.30
2023-05-14T18:10:30.239Z,2.75
2023-05-14T18:12:56.790Z,2.87
2023-05-14T18:15:25.734Z,2.40
2023-05-14T18:17:52.812Z,2.60
2023-05-14T18:20:19.688Z,2.70
2023-05-14T18:22:46.145Z,2.50
2023-05-14T18:25:13.654Z,2.87
2023-05-14T18:27:44.459Z,2.60
2023-05-14T18:30:15.304Z,2.50
2023-05-14T18:32:44.175Z,2.67
2023-05-14T18:35:11.672Z,2.60
2023-05-14T18:37:38.189Z,2.33
2023-05-14T18:40:06.865Z,2.90
2023-05-14T18:42:34.499Z,3.17
2023-05-14T18:45:01.428Z,2.70
2023-05-14T18:47:28.043Z,2.50
2023-05-14T18:49:55.798Z,4.10
2023-05-14T18:52:26.204Z,3.30
2023-05-14T18:54:53.748Z,3.20
2023-05-14T18:57:20.966Z,3.00
2023-05-14T18:59:47.393Z,3.50
2023-05-14T19:02:13.832Z,3.40
2023-05-14T19:04:51.026Z,3.67
2023-05-14T19:07:18.788Z,3.80
2023-05-14T19:09:45.227Z,4.00
2023-05-14T19:12:11.669Z,4.20
2023-05-14T19:14:38.110Z,4.37
2023-05-14T19:17:05.484Z,4.27
2023-05-14T19:19:31.921Z,4.50
2023-05-14T19:21:58.343Z,4.33
2023-05-14T19:24:24.854Z,4.37
2023-05-14T19:26:51.269Z,4.20
2023-05-14T19:29:17.694Z,4.30
2023-05-14T19:31:44.182Z,4.20
2023-05-14T19:34:10.840Z,4.70
2023-05-14T19:36:37.306Z,4.30
2023-05-14T19:39:03.859Z,4.00
2023-05-14T19:41:30.266Z,4.00
2023-05-14T19:43:56.913Z,4.00
2023-05-14T19:46:23.632Z,4.30
2023-05-14T19:48:50.127Z,4.23
2023-05-14T19:51:16.546Z,4.13
2023-05-14T19:53:43.107Z,3.87
2023-05-14T19:56:09.588Z,4.10
2023-05-14T19:58:36.063Z,3.90
2023-05-14T20:01:02.585Z,3.40
2023-05-14T20:03:29.801Z,4.07
2023-05-14T20:05:56.439Z,3.73
2023-05-14T20:08:22.861Z,4.10
2023-05-14T20:10:49.308Z,4.10
2023-05-14T20:13:15.752Z,3.70
2023-05-14T20:15:42.899Z,3.80
2023-05-14T20:18:09.645Z,3.80
2023-05-14T20:20:36.595Z,3.60
2023-05-14T20:23:03.567Z,3.93
2023-05-14T20:25:30.172Z,3.67
2023-05-14T20:27:56.850Z,4.03
2023-05-14T20:30:23.352Z,4.13
2023-05-14T20:32:49.922Z,3.43
2023-05-14T20:35:16.727Z,3.80
2023-05-14T20:37:43.164Z,3.93
2023-05-14T20:40:12.231Z,3.47
2023-05-14T20:42:39.008Z,4.10
2023-05-14T20:45:06.619Z,4.00
2023-05-14T20:47:34.183Z,3.73
2023-05-14T20:50:01.243Z,3.17
2023-05-14T20:52:27.666Z,3.57
2023-05-14T20:54:54.058Z,3.70
2023-05-14T20:57:20.562Z,3.70
2023-05-14T20:59:47.504Z,3.30
2023-05-14T21:02:14.079Z,3.53
2023-05-14T21:04:43.612Z,3.33
2023-05-14T21:07:10.362Z,3.90
2023-05-14T21:09:37.318Z,3.60
2023-05-14T21:12:04.113Z,3.20
2023-05-14T21:14:31.837Z,3.97
2023-05-14T21:16:58.316Z,4.20
2023-05-14T21:19:27.919Z,4.53
2023-05-14T21:21:55.547Z,4.10
2023-05-14T21:24:22.123Z,4.20
2023-05-14T21:26:48.758Z,4.03
2023-05-14T21:29:16.518Z,3.87
2023-05-14T21:31:43.061Z,4.70
2023-05-14T21:34:09.695Z,3.83
2023-05-14T21:36:36.400Z,3.60
2023-05-14T21:50:05.556Z,2.47
2023-05-14T21:52:32.165Z,2.60
2023-05-14T21:55:01.704Z,2.60
2023-05-14T21:57:29.208Z,2.60
2023-05-14T21:59:56.715Z,2.57
2023-05-14T22:02:23.505Z,2.80
2023-05-14T22:04:50.467Z,2.33
2023-05-14T22:07:17.022Z,2.03
2023-05-14T22:14:36.884Z,2.33
2023-05-14T22:17:04.785Z,2.43
2023-05-14T22:19:31.408Z,2.00
2023-05-14T22:49:21.760Z,2.00
2023-05-14T22:51:48.275Z,2.00
2023-05-14T22:54:15.165Z,1.90
2023-05-14T22:56:41.764Z,1.90
2023-05-14T22:59:08.205Z,1.80
2023-05-14T23:01:35.103Z,2.03
2023-05-14T23:04:01.888Z,2.10
2023-05-14T23:06:30.038Z,1.90
2023-05-14T23:08:56.565Z,1.83
2023-05-14T23:11:26.280Z,2.20
2023-05-14T23:13:52.910Z,2.00
2023-05-14T23:35:52.848Z,1.77
2023-05-14T23:38:19.711Z,1.80
2023-05-14T23:40:46.596Z,1.60
2023-05-14T23:43:14.658Z,1.90
2023-05-14T23:45:41.562Z,2.07
2023-05-14T23:48:08.628Z,2.07
2023-05-14T23:50:35.521Z,1.97
2023-05-14T23:53:02.193Z,2.03
2023-05-14T23:55:28.820Z,1.80
2023-05-14T23:57:55.553Z,2.20
